Onweer radar Meer informatie blitzortung!


Regen radar Meer informatie rain snow radar


Bezoek onze andere website:

Template documentation
and downloads

And another site



METAR rapporten vliegvelden

   
EHVK - Volkel Rnlafb, Netherlands
Afstand tot: ZW 18 km
Gewijzigd: 02-06-2020 02:25
Bewolking  
Bewolking  
   Wind: ONO 7.4 km/h
Wind: ONO 7.4 km/h
Temperatuur: 16°C
Dauwpunt: 8°C
Vochtigheid: 59%
Barometer: 1019 hPa
Bewolking: Bewolking
Zicht: meer dan 10 km
Bewolking: Bewolking 22000 ft
EHVK 020025Z AUTO 06004KT 050V110 9999 OVC220 16/08 Q1019 BLU
EDLV - Niederrhein, Germany
Afstand tot: ZO 25 km
Gewijzigd: 01-06-2020 13:50
Verouderd
Helder  
Helder  
   Wind: NNO 13 km/h
Wind: NNO 13 km/h
Temperatuur: 24°C
Dauwpunt: 7°C
Vochtigheid: 34%
Barometer: 1021 hPa
Zicht: meer dan 10 km
Bewolking: Helder
EDLV 011150Z 03007KT 330V130 CAVOK 24/07 Q1021
EHDL - Deelen Rnlafb, Netherlands
Afstand tot: N 35 km
Gewijzigd: 02-06-2020 02:25
Bewolking  
Bewolking  
   Wind: ONO 7.4 km/h
Wind: ONO 7.4 km/h
Temperatuur: 15°C
Dauwpunt: 8°C
Vochtigheid: 63%
Barometer: 1020 hPa
Bewolking: Bewolking
Zicht: meer dan 10 km
Bewolking: Bewolking 22000 ft
EHDL 020025Z AUTO 07004KT 350V090 9999 OVC220 15/08 Q1020 BLU
EHEH - Eindhoven Rnlafb, Netherlands
Afstand tot: ZW 48 km
Gewijzigd: 02-06-2020 02:25
Bewolking  
Bewolking  
   Wind: varieert 1.9 km/h
Wind: varieert 1.9 km/h
Temperatuur: 13°C
Dauwpunt: 7°C
Vochtigheid: 67%
Barometer: 1019 hPa
Bewolking: Bewolking
Zicht: meer dan 10 km
Bewolking: Bewolking 21000 ft
EHEH 020025Z AUTO VRB01KT 9999 OVC210 13/07 Q1019 BLU
EHGR - Gilze-Rijen Rnla, Netherlands
Afstand tot: WZW 70 km
Gewijzigd: 02-06-2020 02:25
Bewolking  
Bewolking  
   Wind: ONO 1.9 km/h
Wind: ONO 1.9 km/h
Temperatuur: 15°C
Dauwpunt: 9°C
Vochtigheid: 68%
Barometer: 1019 hPa
Bewolking: Bewolking
Zicht: meer dan 10 km
Bewolking: Bewolking 22000 ft
EHGR 020025Z AUTO 07001KT 9999 OVC220 15/09 Q1019 BLU
EBBL - Kleine-Brogel(Ba, Belgium
Afstand tot: ZZW 71 km
Gewijzigd: 02-06-2020 02:25
Licht bewolkt  
Licht bewolkt  
   Wind: Kalm
Wind: Kalm
Temperatuur: 14°C
Dauwpunt: 6°C
Vochtigheid: 59%
Barometer: 1019 hPa
Bewolking: Licht bewolkt
Zicht: meer dan 10 km
Bewolking: Licht bewolkt 23000 ft
EBBL 020025Z AUTO 00000KT 9999 FEW230/// 14/06 Q1019 BLU

Script ontwikkeld door  Saratoga-weather.org Aangepast voor de template door  Weerstation Leuven